Edinboro, Pennsylvania
Current Conditions -  °F | °C
As of 1:51 AM on Sunday 23 Nov 2014 (Local Time) from KERI Reporting Station
Overcast Overcast  
Wind Chill: 42°   Ceiling: 4000
Heat Index: 49°   Visibility: 10mi
Dew Point: 33°   Wind: 18mph
Humidity: 54%   Direction: 210°SSW
Pressure: 30.01"   Gusts: 26mph
Location:  41.88°N, 80.13°W
Report Text: KERI 230651Z 21016G23KT 10SM BKN040 OVC060 09/01 A3001 RMK AO2 SLP166 T00940006
Loading
Personal Weather Stations






























Interactive Weather Map New forecast layout! Learn more

10-Day Weather Forecast

Advertisements
Track Severe Weather on mobile